Terminal Aerodrome Forecast
Issued by NWS

Home | Current Version | Previous Version | Text Only | Print | Product List | Glossary On
Versions: 1 2 3 4 5 6 7 8 9 10 11 12 13 14 15 16 17 18 19 20 21 22 23
825
FTUS44 KLIX 222323
TAFMSY
TAF
KMSY 222323Z 2300/2324 27019G31KT P6SM SCT070
     FM230200 28020G32KT P6SM BKN070
     FM230600 30019G32KT P6SM BKN030
     FM230700 30019G32KT P6SM BKN035
     FM231200 31015G25KT P6SM BKN030
     FM231300 31015G25KT P6SM BKN035=

USA.gov is the U.S. government's official web portal to all federal, state and local government web resources and services.